Time;durP1;ratioP1;P1;durP2;ratioP2;P2;SDS_P1;SDS_P2;PMS_P1;PMS_P2;Temp;Humidity;BMP_temperature;BMP_pressure;BME280_temperature;BME280_humidity;BME280_pressure;Samples;Min_cycle;Max_cycle;Signal;HPM_P1;HPM_P2
2023/10/13 00:00:29;;;;;;;14.20;4.50;;;12.90;99.90;;;;;;4995222;28;20484;-56
2023/10/13 00:02:59;;;;;;;9.20;4.30;;;12.90;99.90;;;;;;5000707;28;20468;-57
2023/10/13 00:05:30;;;;;;;13.43;4.53;;;12.90;99.90;;;;;;4993049;28;20471;-57
2023/10/13 00:08:00;;;;;;;13.57;5.20;;;12.90;99.90;;;;;;5003231;28;20484;-56
2023/10/13 00:10:27;;;;;;;9.97;4.90;;;12.90;99.90;;;;;;4995020;28;20480;-57
2023/10/13 00:12:54;;;;;;;11.60;5.20;;;12.90;99.90;;;;;;4995303;28;20464;-57
2023/10/13 00:15:27;;;;;;;15.70;6.00;;;12.90;99.90;;;;;;4995229;28;20464;-57
2023/10/13 00:17:55;;;;;;;15.97;5.60;;;12.90;99.90;;;;;;4999804;28;20460;-57
2023/10/13 00:20:35;;;;;;;11.50;5.90;;;12.90;99.90;;;;;;4992378;28;21012;-56
2023/10/13 00:23:03;;;;;;;19.10;6.47;;;12.90;99.90;;;;;;4997094;28;21094;-56
2023/10/13 00:25:39;;;;;;;13.00;5.80;;;12.90;99.90;;;;;;4993791;28;20466;-57
2023/10/13 00:28:08;;;;;;;11.07;5.63;;;13.00;99.90;;;;;;4996671;28;20966;-57
2023/10/13 00:30:35;;;;;;;14.37;5.93;;;13.00;99.90;;;;;;4993855;28;20849;-56
2023/10/13 00:33:01;;;;;;;16.83;5.80;;;13.00;99.90;;;;;;4999251;28;20460;-57
2023/10/13 00:35:35;;;;;;;19.37;6.60;;;13.00;99.90;;;;;;5009799;28;20486;-57
2023/10/13 00:38:12;;;;;;;14.10;7.00;;;13.00;99.90;;;;;;5011437;28;20456;-57
2023/10/13 00:40:50;;;;;;;14.63;6.43;;;13.00;99.90;;;;;;4998095;28;20479;-58
2023/10/13 00:43:35;;;;;;;18.07;7.20;;;13.00;99.90;;;;;;5004120;28;20469;-62
2023/10/13 00:46:08;;;;;;;15.07;6.20;;;13.00;99.90;;;;;;5008713;28;20961;-57
2023/10/13 00:48:42;;;;;;;16.80;6.57;;;13.00;99.90;;;;;;4993085;28;20456;-56
2023/10/13 00:51:17;;;;;;;12.90;6.20;;;13.00;99.90;;;;;;4994970;28;20484;-56
2023/10/13 00:53:47;;;;;;;15.30;6.10;;;13.00;99.90;;;;;;4993973;28;20539;-56
2023/10/13 00:56:21;;;;;;;13.17;6.33;;;13.10;99.90;;;;;;4990200;28;20547;-56
2023/10/13 00:58:50;;;;;;;20.50;7.07;;;13.10;99.90;;;;;;4994902;28;20518;-57
2023/10/13 01:01:21;;;;;;;10.70;5.73;;;13.10;99.90;;;;;;4992019;28;20480;-57
2023/10/13 01:03:49;;;;;;;12.90;6.03;;;13.10;99.90;;;;;;4993077;28;20452;-58
2023/10/13 01:06:16;;;;;;;15.13;6.90;;;13.10;99.90;;;;;;4994389;28;20456;-56
2023/10/13 01:08:45;;;;;;;14.37;7.00;;;13.10;99.90;;;;;;4992864;28;20463;-57
2023/10/13 01:11:11;;;;;;;20.17;6.43;;;13.10;99.90;;;;;;4996644;28;20546;-56
2023/10/13 01:13:37;;;;;;;18.17;6.70;;;13.10;99.90;;;;;;4994039;28;20942;-56
2023/10/13 01:16:04;;;;;;;16.00;5.73;;;13.00;99.90;;;;;;4989187;28;20210;-57
2023/10/13 01:18:31;;;;;;;13.10;6.67;;;13.10;99.90;;;;;;4991981;28;20456;-56
2023/10/13 01:20:59;;;;;;;19.40;5.77;;;13.00;99.90;;;;;;4993504;28;20469;-56
2023/10/13 01:23:28;;;;;;;10.50;4.90;;;13.00;99.90;;;;;;4986383;28;20473;-57
2023/10/13 01:25:54;;;;;;;15.63;5.97;;;13.00;99.90;;;;;;4992314;28;20464;-55
2023/10/13 01:28:21;;;;;;;11.50;5.10;;;13.00;99.90;;;;;;4993383;28;20476;-57
2023/10/13 01:30:50;;;;;;;16.10;5.53;;;13.00;99.90;;;;;;4991584;28;20488;-56
2023/10/13 01:33:16;;;;;;;12.40;4.90;;;13.10;99.90;;;;;;4993695;28;20452;-56
2023/10/13 01:35:47;;;;;;;8.47;4.83;;;13.00;99.90;;;;;;4994421;28;20456;-57
2023/10/13 01:38:14;;;;;;;12.53;4.80;;;13.00;99.90;;;;;;4994212;28;20448;-57
2023/10/13 01:40:42;;;;;;;12.47;5.37;;;13.10;99.90;;;;;;4995357;28;20978;-57
2023/10/13 01:43:10;;;;;;;10.83;4.47;;;13.00;99.90;;;;;;4999932;28;20461;-56
2023/10/13 01:45:39;;;;;;;13.20;5.00;;;13.10;99.90;;;;;;4997883;28;20468;-57
2023/10/13 01:48:07;;;;;;;17.30;4.93;;;13.00;99.90;;;;;;4995220;28;20486;-56
2023/10/13 01:50:36;;;;;;;9.97;5.47;;;13.00;99.90;;;;;;4987607;28;20485;-57
2023/10/13 01:53:11;;;;;;;10.80;4.30;;;13.00;99.90;;;;;;4986999;28;20457;-57
2023/10/13 01:55:42;;;;;;;11.23;5.03;;;13.00;99.90;;;;;;4997711;28;20492;-56
2023/10/13 01:58:14;;;;;;;10.73;4.87;;;13.00;99.90;;;;;;4996141;28;20457;-57
2023/10/13 02:00:41;;;;;;;7.63;4.50;;;13.00;99.90;;;;;;4992390;28;21009;-56
2023/10/13 02:03:15;;;;;;;17.20;4.70;;;13.00;99.90;;;;;;4990839;28;20494;-57
2023/10/13 02:05:46;;;;;;;6.80;4.00;;;13.00;99.90;;;;;;5003982;28;20445;-56
2023/10/13 02:08:17;;;;;;;12.20;5.13;;;13.00;99.90;;;;;;5015971;28;20536;-56
2023/10/13 02:10:43;;;;;;;9.83;4.10;;;13.00;99.90;;;;;;5011906;28;20491;-56
2023/10/13 02:13:18;;;;;;;17.57;4.67;;;13.00;99.90;;;;;;4993137;28;20444;-56
2023/10/13 02:15:44;;;;;;;9.27;3.93;;;13.00;99.90;;;;;;4989808;28;20496;-56
2023/10/13 02:18:13;;;;;;;9.80;4.10;;;13.00;99.90;;;;;;4994280;28;20804;-57
2023/10/13 02:20:43;;;;;;;10.10;4.30;;;13.00;99.90;;;;;;4994403;28;20527;-57
2023/10/13 02:23:11;;;;;;;9.83;4.00;;;13.00;99.90;;;;;;4990807;28;20480;-57
2023/10/13 02:25:42;;;;;;;4.90;3.40;;;13.00;99.90;;;;;;4980975;28;20844;-57
2023/10/13 02:28:13;;;;;;;8.60;3.60;;;12.90;99.90;;;;;;4988767;28;20810;-58
2023/10/13 02:30:44;;;;;;;13.83;4.73;;;13.00;99.90;;;;;;4988851;28;20480;-57
2023/10/13 02:33:14;;;;;;;8.73;3.93;;;13.00;99.90;;;;;;4991528;28;20614;-57
2023/10/13 02:35:50;;;;;;;11.30;4.67;;;13.00;99.90;;;;;;4990370;28;20547;-58
2023/10/13 02:38:26;;;;;;;8.13;4.20;;;13.00;99.90;;;;;;4996046;28;21104;-58
2023/10/13 02:40:53;;;;;;;16.20;5.10;;;13.00;99.90;;;;;;4997055;28;20486;-58
2023/10/13 02:43:22;;;;;;;7.07;3.73;;;13.00;99.90;;;;;;4994454;28;20460;-57
2023/10/13 02:45:58;;;;;;;8.23;4.57;;;13.00;99.90;;;;;;4991139;28;21156;-57
2023/10/13 02:48:25;;;;;;;9.60;4.70;;;13.00;99.90;;;;;;4995123;28;20912;-57
2023/10/13 02:50:57;;;;;;;10.90;4.87;;;13.10;99.90;;;;;;4988588;28;20538;-58
2023/10/13 02:53:28;;;;;;;16.00;5.60;;;13.00;99.90;;;;;;4987325;28;20854;-57
2023/10/13 02:55:55;;;;;;;8.53;5.23;;;13.00;99.90;;;;;;4979304;28;20555;-57
2023/10/13 02:58:22;;;;;;;18.63;5.50;;;13.10;99.90;;;;;;4991927;28;21046;-56
2023/10/13 03:00:48;;;;;;;15.67;6.50;;;13.10;99.90;;;;;;4990389;28;20543;-57
2023/10/13 03:03:18;;;;;;;8.33;4.87;;;13.10;99.90;;;;;;4992580;28;20464;-57
2023/10/13 03:05:45;;;;;;;15.03;6.43;;;13.10;99.90;;;;;;4990509;28;20472;-57
2023/10/13 03:08:17;;;;;;;9.00;5.40;;;13.10;99.90;;;;;;4991979;28;20480;-58
2023/10/13 03:10:50;;;;;;;11.97;6.10;;;13.10;99.90;;;;;;4990976;28;20997;-58
2023/10/13 03:13:16;;;;;;;15.73;5.90;;;13.10;99.90;;;;;;4993130;28;20437;-58
2023/10/13 03:15:47;;;;;;;12.80;6.60;;;13.10;99.90;;;;;;4991717;28;20441;-58
2023/10/13 03:18:18;;;;;;;14.50;6.50;;;13.10;99.90;;;;;;4994240;28;20448;-58
2023/10/13 03:20:50;;;;;;;13.67;6.37;;;13.10;99.90;;;;;;4985955;28;20500;-56
2023/10/13 03:23:16;;;;;;;13.67;6.40;;;13.10;99.90;;;;;;4991916;28;20448;-56
2023/10/13 03:25:43;;;;;;;20.10;7.00;;;13.10;99.90;;;;;;5000418;28;20518;-57
2023/10/13 03:28:13;;;;;;;16.00;6.77;;;13.10;99.90;;;;;;4998594;28;20519;-57
2023/10/13 03:30:41;;;;;;;17.30;7.83;;;13.10;99.90;;;;;;4992541;28;20489;-56
2023/10/13 03:33:11;;;;;;;12.87;7.70;;;13.20;99.90;;;;;;4990431;28;20543;-56
2023/10/13 03:35:40;;;;;;;19.87;7.63;;;13.20;99.90;;;;;;4992621;28;20461;-57
2023/10/13 03:38:17;;;;;;;21.30;7.60;;;13.20;99.90;;;;;;4993310;28;20466;-57
2023/10/13 03:40:49;;;;;;;22.70;8.60;;;13.20;99.90;;;;;;4997462;28;20866;-57
2023/10/13 03:43:21;;;;;;;25.00;9.87;;;13.20;99.90;;;;;;4995308;28;20479;-57
2023/10/13 03:45:52;;;;;;;17.27;7.70;;;13.20;99.90;;;;;;4989944;28;20488;-57
2023/10/13 03:48:28;;;;;;;22.33;9.43;;;13.20;99.90;;;;;;4993726;28;20520;-57
2023/10/13 03:51:02;;;;;;;15.57;8.63;;;13.20;99.90;;;;;;4991592;28;20488;-60
2023/10/13 03:53:34;;;;;;;21.27;9.23;;;13.20;99.90;;;;;;4992134;28;20965;-58
2023/10/13 03:56:12;;;;;;;28.50;8.90;;;13.20;99.90;;;;;;4988739;28;20547;-57
2023/10/13 03:58:42;;;;;;;17.53;8.43;;;13.20;99.90;;;;;;4993023;28;20920;-56
2023/10/13 04:01:12;;;;;;;18.10;9.03;;;13.20;99.90;;;;;;4990102;28;20480;-58
2023/10/13 04:03:56;;;;;;;26.40;10.17;;;13.20;99.90;;;;;;4993965;28;20461;-57
2023/10/13 04:06:47;;;;;;;20.23;10.23;;;13.20;99.90;;;;;;4990585;28;20668;-57
2023/10/13 04:12:21;;;;;;;16.03;9.33;;;13.30;99.90;;;;;;4988349;28;20452;-57
2023/10/13 04:15:15;;;;;;;17.90;10.73;;;13.30;99.90;;;;;;4989412;28;20464;-57
2023/10/13 04:17:45;;;;;;;17.97;11.63;;;13.30;99.90;;;;;;5002033;28;20456;-57
2023/10/13 04:20:26;;;;;;;24.60;11.27;;;13.30;99.90;;;;;;4993952;28;20491;-57
2023/10/13 04:26:05;;;;;;;23.33;12.27;;;13.30;99.90;;;;;;5005183;28;20515;-57
2023/10/13 04:28:50;;;;;;;17.80;10.77;;;13.40;99.90;;;;;;5010584;28;20544;-58
2023/10/13 04:31:46;;;;;;;24.20;12.23;;;13.40;99.90;;;;;;4995982;28;20480;-57
2023/10/13 04:34:19;;;;;;;22.80;11.57;;;13.40;99.90;;;;;;4990267;28;20483;-57
2023/10/13 04:36:46;;;;;;;15.43;10.90;;;13.40;99.90;;;;;;4988939;28;20945;-56
2023/10/13 04:39:29;;;;;;;20.33;11.80;;;13.40;99.90;;;;;;4990087;28;20468;-56
2023/10/13 04:42:13;;;;;;;19.80;12.07;;;13.40;99.90;;;;;;4989266;28;20471;-57
2023/10/13 04:44:48;;;;;;;19.87;12.67;;;13.40;99.90;;;;;;4980843;28;20842;-58
2023/10/13 04:47:21;;;;;;;16.90;11.87;;;13.50;99.90;;;;;;4985168;28;20479;-58
2023/10/13 04:49:51;;;;;;;20.57;13.30;;;13.50;99.90;;;;;;4979978;28;20515;-58
2023/10/13 04:55:09;;;;;;;18.73;12.23;;;13.50;99.90;;;;;;4986436;28;20460;-56
2023/10/13 04:57:47;;;;;;;21.73;13.60;;;13.50;99.90;;;;;;4989410;28;20459;-58
2023/10/13 05:06:10;;;;;;;21.53;13.70;;;13.60;99.90;;;;;;4993412;28;20513;-58
2023/10/13 05:47:22;;;;;;;22.50;14.57;;;13.80;99.90;;;;;;5013120;28;20479;-56
2023/10/13 05:49:50;;;;;;;23.40;14.40;;;13.90;99.90;;;;;;5015223;28;20449;-57
2023/10/13 06:28:40;;;;;;;19.47;13.90;;;13.90;99.90;;;;;;5012246;28;20479;-58
2023/10/13 06:30:57;;;;;;;21.73;12.00;;;14.30;99.90;;;;;;4990489;28;20479;-61
2023/10/13 06:33:28;;;;;;;22.20;12.40;;;14.30;99.90;;;;;;4995464;28;20468;-60
2023/10/13 06:35:58;;;;;;;16.47;12.40;;;14.40;99.90;;;;;;4993888;28;20464;-59
2023/10/13 06:38:27;;;;;;;22.10;13.23;;;14.40;99.90;;;;;;4993566;28;20944;-60
2023/10/13 06:40:53;;;;;;;20.67;13.40;;;14.40;99.90;;;;;;4989680;28;20956;-61
2023/10/13 06:43:21;;;;;;;13.67;11.27;;;14.40;99.90;;;;;;4993432;28;20507;-60
2023/10/13 06:45:56;;;;;;;15.77;11.33;;;14.40;99.90;;;;;;4993183;28;20480;-59
2023/10/13 06:48:25;;;;;;;24.17;12.47;;;14.50;99.90;;;;;;4995122;28;20487;-60
2023/10/13 06:50:52;;;;;;;21.67;11.60;;;14.50;99.90;;;;;;4991570;28;20477;-60
2023/10/13 06:53:20;;;;;;;17.17;12.40;;;14.60;99.90;;;;;;4991078;28;20464;-60
2023/10/13 06:55:49;;;;;;;21.03;12.13;;;14.60;99.90;;;;;;4989094;28;20487;-61
2023/10/13 06:58:17;;;;;;;18.33;12.27;;;14.60;99.90;;;;;;4990044;28;20893;-63
2023/10/13 07:00:52;;;;;;;16.53;11.67;;;14.70;99.90;;;;;;4988136;28;20900;-61
2023/10/13 07:03:21;;;;;;;17.40;10.73;;;14.70;99.90;;;;;;4987243;28;20483;-60
2023/10/13 07:05:48;;;;;;;20.30;11.43;;;14.70;99.90;;;;;;4990108;28;20457;-61
2023/10/13 07:08:19;;;;;;;17.97;11.20;;;14.80;99.90;;;;;;5008856;28;20576;-62
2023/10/13 07:11:02;;;;;;;17.27;10.83;;;14.80;99.90;;;;;;5015211;28;20874;-61
2023/10/13 07:13:29;;;;;;;20.20;11.00;;;14.90;99.90;;;;;;5012338;28;20479;-62
2023/10/13 07:16:00;;;;;;;16.93;11.37;;;15.00;99.90;;;;;;5009834;28;20566;-60
2023/10/13 07:18:32;;;;;;;22.43;11.20;;;15.00;99.90;;;;;;5000894;28;20468;-61
2023/10/13 07:21:00;;;;;;;17.50;10.93;;;15.00;99.90;;;;;;4992393;28;20492;-59
2023/10/13 07:23:26;;;;;;;18.47;10.83;;;15.00;99.90;;;;;;4990615;28;20441;-60
2023/10/13 07:26:02;;;;;;;15.27;10.80;;;15.00;99.90;;;;;;4992046;28;20452;-62
2023/10/13 07:28:30;;;;;;;16.90;11.20;;;15.00;99.90;;;;;;4994147;28;20607;-60
2023/10/13 07:31:11;;;;;;;15.93;9.70;;;15.00;99.90;;;;;;4990050;28;20546;-59
2023/10/13 07:33:40;;;;;;;21.63;11.83;;;15.10;99.90;;;;;;4986497;28;20495;-60
2023/10/13 07:36:15;;;;;;;16.37;11.37;;;15.10;99.90;;;;;;4990367;28;20469;-61
2023/10/13 07:38:43;;;;;;;21.03;10.43;;;15.10;99.90;;;;;;4992154;28;20498;-60
2023/10/13 07:41:15;;;;;;;16.57;10.67;;;15.20;99.90;;;;;;4990526;28;20489;-60
2023/10/13 07:43:42;;;;;;;20.60;11.40;;;15.20;99.90;;;;;;4994774;28;20456;-59
2023/10/13 07:46:10;;;;;;;16.47;11.30;;;15.30;99.90;;;;;;4988846;28;20492;-59
2023/10/13 07:48:37;;;;;;;16.20;10.10;;;15.40;99.90;;;;;;4987996;28;20856;-60
2023/10/13 07:51:09;;;;;;;14.63;10.40;;;15.40;99.90;;;;;;4992136;28;20488;-60
2023/10/13 07:53:40;;;;;;;14.10;9.90;;;15.50;99.90;;;;;;4991119;28;20464;-59
2023/10/13 07:56:07;;;;;;;19.00;10.83;;;15.60;99.90;;;;;;4989460;28;20859;-59
2023/10/13 07:58:47;;;;;;;20.50;11.00;;;15.60;99.90;;;;;;4983682;28;20464;-58
2023/10/13 08:01:18;;;;;;;16.00;9.17;;;15.60;99.90;;;;;;4994097;28;20479;-59
2023/10/13 08:03:44;;;;;;;15.80;10.77;;;15.70;99.90;;;;;;4984177;28;20464;-60
2023/10/13 08:06:21;;;;;;;17.03;10.10;;;15.70;99.90;;;;;;4993572;28;20957;-58
2023/10/13 08:08:53;;;;;;;17.50;10.63;;;15.80;99.90;;;;;;4992020;28;20220;-59
2023/10/13 08:11:26;;;;;;;22.77;11.27;;;15.80;99.90;;;;;;4991264;28;20484;-59
2023/10/13 08:13:58;;;;;;;13.90;8.83;;;15.80;99.90;;;;;;5003902;28;20460;-59
2023/10/13 08:16:45;;;;;;;16.63;8.90;;;15.90;99.90;;;;;;4998066;28;20842;-61
2023/10/13 08:19:13;;;;;;;14.10;9.60;;;16.00;99.90;;;;;;5008427;28;20506;-60
2023/10/13 08:21:41;;;;;;;18.10;9.30;;;16.00;99.90;;;;;;4995290;28;20459;-61
2023/10/13 08:24:09;;;;;;;13.20;9.33;;;16.10;99.90;;;;;;4992855;28;20483;-60
2023/10/13 08:32:23;;;;;;;15.90;9.13;;;16.30;99.90;;;;;;4984611;28;20440;-61
2023/10/13 08:35:09;;;;;;;12.03;7.67;;;16.40;99.90;;;;;;5009801;23;22601;-58
2023/10/13 08:37:46;;;;;;;16.03;8.00;;;16.40;99.90;;;;;;4988384;28;20555;-57
2023/10/13 08:40:42;;;;;;;13.70;8.70;;;16.50;99.90;;;;;;4991453;28;20466;-57
2023/10/13 08:43:11;;;;;;;15.10;7.50;;;16.60;99.90;;;;;;4990244;28;20456;-57
2023/10/13 08:45:58;;;;;;;10.00;6.60;;;16.60;99.90;;;;;;4991037;28;20472;-57
2023/10/13 08:48:31;;;;;;;11.80;7.53;;;16.70;99.90;;;;;;4991929;28;20492;-56
2023/10/13 08:51:08;;;;;;;9.23;7.53;;;16.60;99.90;;;;;;4984947;28;20454;-58
2023/10/13 08:53:44;;;;;;;8.20;6.40;;;16.70;99.90;;;;;;4989617;28;20460;-57
2023/10/13 08:56:15;;;;;;;11.53;7.30;;;16.70;99.90;;;;;;4984936;28;20488;-58
2023/10/13 09:01:45;;;;;;;7.87;6.07;;;16.70;99.90;;;;;;4990190;28;20584;-58
2023/10/13 09:04:21;;;;;;;11.13;7.20;;;16.70;99.90;;;;;;4990671;28;20487;-58
2023/10/13 09:07:03;;;;;;;14.40;5.73;;;16.80;99.90;;;;;;4989279;28;20507;-57
2023/10/13 09:09:34;;;;;;;7.87;6.40;;;16.70;99.90;;;;;;4986145;28;20491;-57
2023/10/13 09:12:09;;;;;;;13.93;6.57;;;16.80;99.90;;;;;;4992527;28;20977;-57
2023/10/13 09:14:37;;;;;;;16.17;7.10;;;16.80;99.90;;;;;;4975529;28;20461;-59
2023/10/13 09:17:11;;;;;;;11.53;6.50;;;16.80;99.90;;;;;;4990550;28;20800;-57
2023/10/13 09:19:48;;;;;;;8.77;6.30;;;16.80;99.90;;;;;;4991524;28;20970;-57
2023/10/13 09:22:35;;;;;;;12.40;6.80;;;16.70;99.90;;;;;;4986110;28;20487;-58
2023/10/13 09:25:00;;;;;;;9.50;6.27;;;16.70;99.90;;;;;;4986988;28;20481;-58
2023/10/13 09:27:28;;;;;;;11.03;5.60;;;16.70;99.90;;;;;;4991134;28;20947;-58
2023/10/13 09:29:55;;;;;;;10.20;5.80;;;16.70;99.90;;;;;;4991249;28;20217;-57
2023/10/13 09:32:23;;;;;;;8.70;6.27;;;16.70;99.90;;;;;;4987409;28;20542;-57
2023/10/13 09:34:51;;;;;;;11.80;6.33;;;16.70;99.90;;;;;;4987957;28;20512;-57
2023/10/13 09:37:20;;;;;;;18.37;6.80;;;16.60;99.90;;;;;;4983778;28;20504;-56
2023/10/13 09:39:48;;;;;;;17.00;7.33;;;16.70;99.90;;;;;;4988170;28;20551;-64
2023/10/13 09:42:18;;;;;;;10.93;6.23;;;16.70;99.90;;;;;;4990805;28;20453;-57
2023/10/13 09:44:49;;;;;;;14.97;7.60;;;16.70;99.90;;;;;;4990950;28;20484;-58
2023/10/13 09:47:19;;;;;;;10.03;6.87;;;16.70;99.90;;;;;;4980894;28;20456;-57
2023/10/13 09:49:49;;;;;;;14.33;7.00;;;16.80;99.90;;;;;;4985821;28;20492;-57
2023/10/13 09:52:25;;;;;;;8.63;5.83;;;16.80;99.90;;;;;;4987641;28;20457;-58
2023/10/13 09:55:00;;;;;;;9.03;6.00;;;16.80;99.90;;;;;;4983604;28;20487;-58
2023/10/13 09:57:34;;;;;;;8.80;5.20;;;16.80;99.90;;;;;;4985898;28;20475;-57
2023/10/13 10:00:26;;;;;;;9.47;5.90;;;16.80;99.90;;;;;;4987560;28;20456;-58
2023/10/13 10:02:58;;;;;;;12.20;6.40;;;16.80;99.90;;;;;;4992494;28;20449;-58
2023/10/13 10:05:26;;;;;;;9.77;6.53;;;16.80;99.90;;;;;;4992186;28;20469;-57
2023/10/13 10:07:56;;;;;;;7.03;5.53;;;16.80;99.90;;;;;;4986138;28;20460;-56
2023/10/13 10:10:24;;;;;;;8.63;6.30;;;16.90;99.90;;;;;;4990344;28;20484;-56
2023/10/13 10:12:55;;;;;;;10.83;5.73;;;17.00;99.90;;;;;;4988926;28;20555;-56
2023/10/13 10:15:30;;;;;;;7.60;6.37;;;17.00;99.90;;;;;;4991109;28;20495;-58
2023/10/13 10:17:57;;;;;;;12.10;6.90;;;17.00;99.90;;;;;;4987334;28;20459;-58
2023/10/13 10:20:39;;;;;;;9.80;6.67;;;17.10;99.90;;;;;;4986614;28;20461;-58
2023/10/13 10:23:09;;;;;;;14.50;5.80;;;17.10;99.90;;;;;;4989477;28;20499;-58
2023/10/13 10:25:37;;;;;;;9.17;6.13;;;17.20;99.90;;;;;;4985564;28;20492;-57
2023/10/13 10:28:06;;;;;;;10.13;6.77;;;17.20;99.90;;;;;;4990388;28;20861;-58
2023/10/13 10:30:34;;;;;;;17.00;6.90;;;17.20;99.90;;;;;;4992806;28;20444;-57
2023/10/13 10:33:07;;;;;;;13.73;6.70;;;17.20;99.90;;;;;;4985149;28;20540;-56
2023/10/13 10:35:35;;;;;;;13.27;6.80;;;17.10;99.90;;;;;;4987363;28;20488;-56
2023/10/13 10:38:24;;;;;;;10.10;6.10;;;17.10;99.90;;;;;;4987625;28;20877;-56
2023/10/13 10:40:56;;;;;;;9.40;6.60;;;17.10;99.90;;;;;;4983031;28;20571;-57
2023/10/13 10:43:26;;;;;;;9.03;6.73;;;17.00;99.90;;;;;;4987617;28;20555;-58
2023/10/13 10:45:59;;;;;;;7.90;5.93;;;17.00;99.90;;;;;;4983197;28;20843;-56
2023/10/13 10:48:31;;;;;;;6.27;5.67;;;16.90;99.90;;;;;;4985691;28;20523;-57
2023/10/13 10:51:06;;;;;;;11.20;6.90;;;16.90;99.90;;;;;;4985739;28;20898;-58
2023/10/13 10:53:43;;;;;;;8.23;6.27;;;16.90;99.90;;;;;;4985298;28;20452;-58
2023/10/13 10:56:19;;;;;;;13.23;6.27;;;16.90;99.90;;;;;;4988684;28;20483;-58
2023/10/13 10:58:46;;;;;;;10.70;6.40;;;16.90;99.90;;;;;;4980882;28;20460;-57
2023/10/13 11:01:19;;;;;;;9.00;5.90;;;16.90;99.90;;;;;;4986062;28;21017;-58
2023/10/13 11:03:57;;;;;;;18.77;6.50;;;17.00;99.90;;;;;;4990707;28;20444;-58
2023/10/13 11:06:26;;;;;;;10.60;7.10;;;17.00;99.90;;;;;;4992240;28;20468;-59
2023/10/13 11:09:03;;;;;;;13.63;6.37;;;17.00;99.90;;;;;;4988829;28;20488;-57
2023/10/13 11:11:35;;;;;;;16.20;6.50;;;17.10;99.90;;;;;;4989525;28;20984;-58
2023/10/13 11:14:13;;;;;;;10.93;6.80;;;17.00;99.90;;;;;;4982833;28;20473;-57
2023/10/13 11:16:50;;;;;;;13.13;6.60;;;17.10;99.90;;;;;;4983418;28;20481;-57
2023/10/13 11:19:20;;;;;;;11.50;6.20;;;17.10;99.90;;;;;;4986311;28;20448;-57
2023/10/13 11:21:48;;;;;;;16.70;6.30;;;17.10;99.90;;;;;;4984856;28;20496;-57
2023/10/13 11:24:17;;;;;;;8.40;7.20;;;17.20;99.90;;;;;;4982767;28;20489;-57
2023/10/13 11:26:49;;;;;;;16.43;6.67;;;17.20;99.90;;;;;;4987316;28;20488;-59
2023/10/13 11:29:18;;;;;;;12.07;6.47;;;17.30;99.90;;;;;;4985248;28;20476;-56
2023/10/13 11:31:45;;;;;;;13.60;6.67;;;17.30;99.90;;;;;;4989437;28;20523;-57
2023/10/13 11:34:12;;;;;;;7.37;6.60;;;17.30;99.90;;;;;;4991635;28;20863;-57
2023/10/13 11:36:40;;;;;;;11.30;6.90;;;17.40;99.90;;;;;;4990906;28;20472;-58
2023/10/13 11:39:08;;;;;;;13.90;6.67;;;17.40;99.90;;;;;;4986411;28;20542;-57
2023/10/13 11:41:38;;;;;;;12.57;6.40;;;17.40;99.90;;;;;;4991211;28;20476;-57
2023/10/13 11:44:12;;;;;;;17.00;7.10;;;17.50;99.90;;;;;;4984402;28;20460;-57
2023/10/13 11:46:55;;;;;;;16.47;6.00;;;17.50;99.90;;;;;;4991515;28;20479;-59
2023/10/13 11:49:32;;;;;;;8.90;6.20;;;17.50;99.90;;;;;;4992013;28;21078;-58
2023/10/13 11:52:09;;;;;;;8.13;6.33;;;17.50;99.90;;;;;;4992996;28;20959;-59
2023/10/13 11:54:41;;;;;;;16.10;7.00;;;17.50;99.90;;;;;;4992279;28;20479;-59
2023/10/13 11:57:08;;;;;;;13.23;6.83;;;17.60;99.90;;;;;;4984231;28;20464;-59
2023/10/13 11:59:40;;;;;;;9.40;7.00;;;17.60;99.90;;;;;;4991759;28;20485;-59
2023/10/13 12:04:54;;;;;;;11.23;6.70;;;17.70;99.90;;;;;;4994463;28;20475;-60
2023/10/13 12:07:26;;;;;;;11.17;6.50;;;17.70;99.90;;;;;;4984098;28;20456;-59
2023/10/13 12:10:06;;;;;;;16.03;7.03;;;17.80;99.90;;;;;;4979909;28;20884;-58
2023/10/13 12:12:40;;;;;;;13.00;6.87;;;17.80;99.90;;;;;;4985649;28;20497;-59
2023/10/13 12:15:14;;;;;;;8.93;5.90;;;17.80;99.90;;;;;;4979626;28;20488;-60
2023/10/13 12:17:44;;;;;;;8.33;6.63;;;17.90;99.90;;;;;;4992468;28;20448;-59
2023/10/13 12:20:17;;;;;;;14.50;6.83;;;18.00;99.90;;;;;;4993573;28;20441;-59
2023/10/13 12:22:54;;;;;;;11.20;6.70;;;18.00;99.90;;;;;;4990875;28;20868;-58
2023/10/13 12:25:34;;;;;;;11.20;6.20;;;18.10;99.90;;;;;;4989456;28;20483;-58
2023/10/13 12:28:12;;;;;;;8.50;5.97;;;18.10;99.90;;;;;;4988409;28;20515;-59
2023/10/13 12:30:49;;;;;;;22.33;6.80;;;18.20;99.90;;;;;;4992534;28;20480;-59
2023/10/13 12:33:24;;;;;;;9.93;6.43;;;18.30;99.90;;;;;;4990189;28;20551;-58
2023/10/13 12:36:03;;;;;;;9.20;6.00;;;18.40;99.90;;;;;;4984398;28;20526;-58
2023/10/13 12:38:50;;;;;;;15.27;7.20;;;18.40;99.90;;;;;;4987741;28;20535;-59
2023/10/13 12:49:49;;;;;;;6.80;5.70;;;18.60;99.90;;;;;;4990496;28;20499;-60
2023/10/13 12:52:19;;;;;;;10.43;5.23;;;18.60;99.90;;;;;;4986817;28;20462;-59
2023/10/13 12:54:47;;;;;;;12.03;5.70;;;18.70;99.90;;;;;;4991055;28;20512;-59
2023/10/13 12:57:15;;;;;;;20.50;7.10;;;18.80;99.90;;;;;;4991990;28;20942;-58
2023/10/13 12:59:42;;;;;;;12.47;5.70;;;18.90;99.90;;;;;;4990504;28;20868;-58
2023/10/13 13:02:14;;;;;;;12.80;5.80;;;19.00;99.90;;;;;;4984857;28;20933;-58
2023/10/13 13:04:44;;;;;;;14.13;5.77;;;19.10;99.90;;;;;;4989318;28;20484;-59
2023/10/13 13:07:13;;;;;;;6.27;5.10;;;19.10;72.30;;;;;;4986083;28;20475;-58
2023/10/13 13:09:40;;;;;;;10.77;5.60;;;19.20;87.10;;;;;;4985961;28;20857;-58
2023/10/13 13:12:07;;;;;;;11.03;6.30;;;19.20;26.80;;;;;;4978383;28;20461;-58
2023/10/13 13:14:35;;;;;;;10.07;5.80;;;19.40;23.50;;;;;;4992240;28;20822;-60
2023/10/13 13:17:05;;;;;;;11.77;6.33;;;19.50;21.50;;;;;;4991299;28;20488;-58
2023/10/13 13:19:35;;;;;;;11.57;5.77;;;19.60;35.10;;;;;;4987739;28;20463;-58
2023/10/13 13:22:02;;;;;;;16.43;5.90;;;19.60;36.40;;;;;;4989277;28;20471;-59
2023/10/13 13:24:29;;;;;;;16.27;6.17;;;19.60;33.20;;;;;;4987956;28;20501;-60
2023/10/13 13:26:56;;;;;;;26.67;7.10;;;19.60;37.40;;;;;;4989265;28;20469;-60
2023/10/13 13:29:25;;;;;;;7.70;5.67;;;19.70;36.70;;;;;;4985129;28;20480;-57
2023/10/13 13:31:53;;;;;;;13.40;6.27;;;19.60;38.20;;;;;;4991015;28;20475;-60
2023/10/13 13:34:21;;;;;;;15.27;6.30;;;19.60;38.70;;;;;;4989058;28;20463;-58
2023/10/13 13:36:52;;;;;;;15.37;5.67;;;19.70;43.60;;;;;;4985153;28;20487;-57
2023/10/13 13:39:28;;;;;;;24.50;6.87;;;19.80;41.80;;;;;;4989695;28;20547;-58
2023/10/13 13:41:56;;;;;;;15.73;5.83;;;19.80;43.70;;;;;;4990797;28;20464;-58
2023/10/13 13:44:28;;;;;;;14.27;6.30;;;19.90;49.00;;;;;;4992733;28;20530;-58
2023/10/13 13:46:57;;;;;;;16.70;6.90;;;20.10;55.50;;;;;;4988400;28;20465;-58
2023/10/13 13:49:30;;;;;;;23.83;6.10;;;20.40;58.10;;;;;;4995426;28;20849;-58
2023/10/13 13:51:56;;;;;;;12.30;5.80;;;20.50;83.50;;;;;;4990963;28;20571;-59
2023/10/13 13:54:27;;;;;;;30.83;6.80;;;20.60;77.50;;;;;;4990231;28;20950;-57
2023/10/13 13:56:54;;;;;;;13.40;5.67;;;20.60;82.40;;;;;;4987877;28;20578;-58
2023/10/13 13:59:20;;;;;;;12.17;6.10;;;20.50;76.20;;;;;;4985764;28;20489;-57
2023/10/13 14:01:47;;;;;;;12.47;5.40;;;20.50;72.20;;;;;;4984854;28;20492;-57
2023/10/13 14:04:17;;;;;;;19.47;6.03;;;20.40;81.40;;;;;;4986992;28;20926;-58
2023/10/13 14:06:44;;;;;;;9.53;4.63;;;20.40;82.80;;;;;;4985836;28;20552;-58
2023/10/13 14:09:15;;;;;;;12.80;6.10;;;20.40;88.70;;;;;;4988733;28;20499;-59
2023/10/13 14:14:33;;;;;;;14.17;5.73;;;20.40;85.10;;;;;;4989123;28;20518;-57
2023/10/13 14:17:06;;;;;;;12.60;5.30;;;20.40;90.10;;;;;;4992425;28;20830;-57
2023/10/13 14:19:34;;;;;;;16.23;6.13;;;20.40;99.90;;;;;;4986754;28;20981;-58
2023/10/13 14:22:06;;;;;;;13.20;5.90;;;20.40;98.00;;;;;;4992094;28;21180;-58
2023/10/13 14:24:34;;;;;;;17.80;5.70;;;20.40;99.90;;;;;;4990534;28;20461;-57
2023/10/13 14:27:08;;;;;;;15.40;5.60;;;20.40;99.90;;;;;;4988506;28;20460;-58
2023/10/13 14:29:39;;;;;;;13.13;6.00;;;20.40;98.70;;;;;;4990051;28;20571;-57
2023/10/13 14:32:07;;;;;;;12.90;5.50;;;20.40;95.50;;;;;;5000034;28;20455;-58
2023/10/13 14:34:35;;;;;;;12.27;5.57;;;20.30;98.40;;;;;;4989590;28;20479;-57
2023/10/13 14:37:04;;;;;;;15.53;5.50;;;20.30;96.80;;;;;;5017847;23;20507;-60
2023/10/13 14:39:34;;;;;;;12.40;5.70;;;20.30;98.50;;;;;;5004531;28;20476;-61
2023/10/13 14:42:02;;;;;;;19.23;6.50;;;20.30;94.30;;;;;;5003830;28;20533;-59
2023/10/13 14:44:29;;;;;;;25.57;6.60;;;20.20;96.80;;;;;;5004957;28;20467;-60
2023/10/13 14:46:55;;;;;;;9.40;6.60;;;20.30;92.70;;;;;;4998788;28;20457;-59
2023/10/13 14:49:22;;;;;;;11.40;5.37;;;20.30;99.90;;;;;;4994678;28;20831;-60